createdAt,value
2024-05-09T00:00:00.375Z,61.0
2024-05-09T00:01:00.511Z,61.0
2024-05-09T00:02:00.356Z,61.0
2024-05-09T00:03:00.502Z,60.9
2024-05-09T00:04:00.360Z,60.9
2024-05-09T00:05:00.434Z,61.1
2024-05-09T00:06:00.561Z,61.0
2024-05-09T00:07:00.372Z,60.9
2024-05-09T00:08:00.343Z,61.2
2024-05-09T00:09:00.343Z,61.1
2024-05-09T00:10:00.335Z,61.0
2024-05-09T00:11:00.464Z,61.1
2024-05-09T00:12:00.575Z,61.1
2024-05-09T00:13:00.332Z,61.2
2024-05-09T00:14:00.434Z,61.4
2024-05-09T00:15:00.379Z,61.4
2024-05-09T00:16:00.323Z,61.3
2024-05-09T00:17:00.757Z,61.4
2024-05-09T00:18:00.808Z,61.3
2024-05-09T00:19:00.566Z,61.2
2024-05-09T00:20:00.436Z,61.1
2024-05-09T00:21:00.491Z,61.3
2024-05-09T00:22:00.327Z,61.3
2024-05-09T00:23:00.506Z,61.2
2024-05-09T00:24:00.331Z,61.2
2024-05-09T00:25:00.338Z,61.3
2024-05-09T00:26:00.430Z,61.4
2024-05-09T00:27:00.337Z,61.4
2024-05-09T00:28:00.329Z,61.5
2024-05-09T00:29:00.409Z,61.6
2024-05-09T00:30:00.385Z,61.6
2024-05-09T00:31:00.329Z,61.4
2024-05-09T00:32:00.469Z,61.5
2024-05-09T00:33:00.681Z,61.5
2024-05-09T00:34:00.692Z,61.6
2024-05-09T00:35:00.410Z,61.6
2024-05-09T00:36:00.373Z,61.7
2024-05-09T00:37:00.342Z,61.6
2024-05-09T00:38:00.578Z,61.7
2024-05-09T00:39:00.347Z,61.6
2024-05-09T00:40:00.408Z,61.7
2024-05-09T00:41:00.535Z,61.6
2024-05-09T00:42:00.322Z,61.8
2024-05-09T00:43:00.338Z,61.8
2024-05-09T00:44:00.412Z,61.8
2024-05-09T00:45:00.328Z,61.8
2024-05-09T00:46:00.348Z,61.9
2024-05-09T00:47:00.352Z,62.1
2024-05-09T00:48:00.661Z,62.1
2024-05-09T00:49:00.420Z,62.1
2024-05-09T00:50:00.411Z,62.3
2024-05-09T00:51:00.490Z,62.3
2024-05-09T00:52:00.477Z,62.3
2024-05-09T00:53:00.368Z,62.4
2024-05-09T00:54:00.348Z,62.1
2024-05-09T00:55:00.351Z,62.2
2024-05-09T00:56:00.346Z,62.2
2024-05-09T00:57:00.413Z,62.3
2024-05-09T00:58:00.362Z,62.5
2024-05-09T00:59:00.408Z,62.9
2024-05-09T01:00:00.374Z,62.6
2024-05-09T01:01:00.387Z,62.6
2024-05-09T01:02:00.418Z,62.7
2024-05-09T01:03:00.554Z,62.7
2024-05-09T01:04:00.507Z,62.6
2024-05-09T01:05:00.547Z,62.6
2024-05-09T01:06:00.402Z,62.8
2024-05-09T01:07:00.332Z,62.8
2024-05-09T01:08:00.541Z,62.8
2024-05-09T01:09:00.332Z,62.7
2024-05-09T01:10:00.380Z,62.8
2024-05-09T01:11:00.467Z,62.7
2024-05-09T01:12:00.575Z,62.7
2024-05-09T01:13:00.435Z,62.8
2024-05-09T01:14:00.413Z,62.7
2024-05-09T01:15:00.357Z,62.7
2024-05-09T01:16:00.382Z,62.8
2024-05-09T01:17:00.417Z,63.0
2024-05-09T01:18:00.598Z,62.9
2024-05-09T01:19:00.416Z,62.9
2024-05-09T01:20:00.392Z,62.9
2024-05-09T01:21:00.378Z,63.0
2024-05-09T01:22:00.668Z,63.0
2024-05-09T01:23:00.390Z,63.0
2024-05-09T01:24:00.331Z,63.2
2024-05-09T01:25:00.335Z,63.1
2024-05-09T01:26:00.462Z,63.2
2024-05-09T01:27:00.330Z,63.2
2024-05-09T01:28:00.393Z,63.1
2024-05-09T01:29:00.414Z,63.3
2024-05-09T01:30:00.461Z,63.3
2024-05-09T01:31:00.330Z,63.2
2024-05-09T01:32:00.444Z,63.2
2024-05-09T01:33:00.463Z,63.2
2024-05-09T01:34:00.498Z,63.2
2024-05-09T01:35:00.448Z,63.4
2024-05-09T01:36:00.331Z,63.4
2024-05-09T01:37:00.349Z,63.4
2024-05-09T01:38:00.463Z,63.2
2024-05-09T01:39:00.345Z,63.3
2024-05-09T01:40:00.364Z,63.3
2024-05-09T01:41:00.466Z,63.1
2024-05-09T01:42:00.322Z,63.1
2024-05-09T01:43:00.339Z,63.1
2024-05-09T01:44:00.477Z,63.0
2024-05-09T01:45:00.417Z,62.9
2024-05-09T01:46:00.361Z,62.9
2024-05-09T01:47:00.386Z,63.0
2024-05-09T01:48:00.900Z,62.9
2024-05-09T01:49:00.464Z,62.9
2024-05-09T01:50:00.516Z,62.9
2024-05-09T01:51:00.543Z,63.0
2024-05-09T01:52:00.379Z,63.2
2024-05-09T01:53:00.351Z,63.0
2024-05-09T01:54:00.347Z,63.3
2024-05-09T01:55:03.514Z,63.2
2024-05-09T01:56:00.374Z,63.1
2024-05-09T01:57:00.362Z,63.0
2024-05-09T01:58:00.343Z,62.9
2024-05-09T01:59:00.351Z,62.9
2024-05-09T02:00:00.352Z,62.9
2024-05-09T02:01:00.362Z,62.9
2024-05-09T02:02:00.566Z,63.0
2024-05-09T02:03:00.684Z,63.1
2024-05-09T02:04:00.484Z,63.0
2024-05-09T02:05:00.619Z,63.0
2024-05-09T02:06:00.367Z,62.9
2024-05-09T02:07:00.340Z,62.8
2024-05-09T02:08:00.351Z,62.8
2024-05-09T02:09:00.390Z,62.8
2024-05-09T02:10:00.329Z,62.7
2024-05-09T02:11:00.572Z,62.6
2024-05-09T02:12:00.580Z,62.6
2024-05-09T02:13:00.495Z,62.6
2024-05-09T02:14:00.501Z,62.5
2024-05-09T02:15:00.327Z,62.5
2024-05-09T02:16:00.323Z,62.5
2024-05-09T02:17:00.369Z,62.5
2024-05-09T02:18:00.634Z,62.4
2024-05-09T02:19:00.497Z,62.4
2024-05-09T02:20:00.463Z,62.4
2024-05-09T02:21:00.587Z,62.4
2024-05-09T02:22:00.333Z,62.5
2024-05-09T02:23:00.801Z,62.4
2024-05-09T02:24:00.328Z,62.4
2024-05-09T02:25:00.467Z,62.4
2024-05-09T02:26:00.396Z,62.5
2024-05-09T02:27:00.325Z,62.3
2024-05-09T02:28:00.336Z,62.5
2024-05-09T02:29:00.540Z,62.3
2024-05-09T02:30:00.340Z,62.4
2024-05-09T02:31:00.337Z,62.5
2024-05-09T02:32:00.494Z,62.4
2024-05-09T02:33:00.521Z,62.2
2024-05-09T02:34:00.522Z,62.2
2024-05-09T02:35:00.484Z,62.1
2024-05-09T02:36:00.372Z,62.1
2024-05-09T02:37:00.331Z,61.9
2024-05-09T02:38:00.542Z,61.9
2024-05-09T02:39:00.332Z,62.1
2024-05-09T02:40:00.485Z,62.0
2024-05-09T02:41:00.414Z,61.9
2024-05-09T02:42:00.368Z,61.7
2024-05-09T02:43:00.634Z,61.7
2024-05-09T02:44:00.401Z,61.6
2024-05-09T02:45:00.563Z,61.6
2024-05-09T02:46:00.352Z,61.6
2024-05-09T02:47:00.674Z,61.6
2024-05-09T02:48:01.000Z,61.6
2024-05-09T02:49:00.655Z,61.5
2024-05-09T02:50:00.383Z,61.5
2024-05-09T02:51:00.404Z,61.5
2024-05-09T02:52:00.328Z,61.3
2024-05-09T02:53:00.410Z,61.1
2024-05-09T02:54:00.324Z,61.0
2024-05-09T02:55:00.348Z,60.7
2024-05-09T02:56:00.385Z,60.7
2024-05-09T02:57:00.327Z,60.5
2024-05-09T02:58:00.362Z,60.4
2024-05-09T02:59:00.394Z,60.2
2024-05-09T03:00:00.402Z,60.0
2024-05-09T03:01:00.377Z,60.0
2024-05-09T03:02:00.461Z,59.9
2024-05-09T03:03:00.519Z,59.8
2024-05-09T03:04:00.445Z,59.6
2024-05-09T03:05:00.407Z,59.5
2024-05-09T03:06:00.325Z,59.5
2024-05-09T03:07:00.359Z,59.5
2024-05-09T03:08:00.399Z,59.5
2024-05-09T03:09:00.335Z,59.3
2024-05-09T03:10:00.327Z,59.2
2024-05-09T03:11:07.539Z,59.0
2024-05-09T03:12:00.466Z,58.7
2024-05-09T03:13:00.335Z,58.6
2024-05-09T03:14:00.354Z,58.5
2024-05-09T03:15:00.374Z,58.2
2024-05-09T03:16:00.336Z,58.0
2024-05-09T03:17:00.426Z,57.9
2024-05-09T03:18:00.617Z,57.6
2024-05-09T03:19:00.390Z,57.3
2024-05-09T03:20:00.403Z,57.1
2024-05-09T03:21:00.359Z,56.6
2024-05-09T03:22:00.335Z,56.2
2024-05-09T03:23:00.715Z,55.8
2024-05-09T03:24:00.329Z,55.8
2024-05-09T03:25:00.336Z,55.8
2024-05-09T03:26:00.367Z,55.7
2024-05-09T03:27:00.336Z,55.3
2024-05-09T03:28:00.326Z,55.3
2024-05-09T03:29:00.418Z,55.2
2024-05-09T03:30:00.384Z,55.1
2024-05-09T03:31:00.316Z,55.0
2024-05-09T03:32:00.390Z,54.9
2024-05-09T03:33:00.576Z,55.0
2024-05-09T03:34:00.475Z,54.8
2024-05-09T03:35:00.361Z,54.8
2024-05-09T03:36:00.423Z,54.7
2024-05-09T03:37:00.328Z,54.5
2024-05-09T03:38:00.360Z,54.5
2024-05-09T03:39:00.332Z,54.3
2024-05-09T03:40:00.414Z,54.3
2024-05-09T03:41:00.354Z,54.2
2024-05-09T03:42:00.380Z,54.0
2024-05-09T03:43:00.324Z,53.9
2024-05-09T03:44:00.397Z,53.9
2024-05-09T03:45:00.371Z,53.7
2024-05-09T03:46:00.337Z,53.6
2024-05-09T03:47:00.369Z,53.6
2024-05-09T03:48:00.579Z,53.6
2024-05-09T03:49:00.400Z,53.5
2024-05-09T03:50:00.350Z,53.3
2024-05-09T03:51:00.458Z,53.3
2024-05-09T03:52:00.330Z,53.3
2024-05-09T03:53:00.514Z,53.3
2024-05-09T03:54:00.364Z,53.3
2024-05-09T03:55:00.347Z,53.3
2024-05-09T03:56:00.447Z,53.3
2024-05-09T03:57:00.376Z,53.1
2024-05-09T03:58:00.353Z,52.9
2024-05-09T03:59:00.366Z,52.8
2024-05-09T04:00:00.350Z,52.7
2024-05-09T04:01:00.380Z,52.7
2024-05-09T04:02:07.447Z,52.3
2024-05-09T04:03:00.534Z,52.1
2024-05-09T04:04:00.380Z,52.2
2024-05-09T04:05:00.434Z,51.8
2024-05-09T04:06:00.332Z,51.6
2024-05-09T04:07:00.399Z,50.9
2024-05-09T04:08:00.414Z,50.8
2024-05-09T04:09:00.335Z,50.9
2024-05-09T04:10:00.384Z,51.0
2024-05-09T04:11:00.368Z,51.0
2024-05-09T04:12:00.439Z,50.8
2024-05-09T04:13:00.403Z,50.7
2024-05-09T04:14:00.403Z,50.6
2024-05-09T04:15:00.344Z,50.9
2024-05-09T04:16:00.327Z,50.7
2024-05-09T04:17:00.358Z,50.7
2024-05-09T04:18:01.141Z,50.3
2024-05-09T04:19:00.578Z,50.5
2024-05-09T04:20:00.449Z,50.6
2024-05-09T04:21:00.355Z,51.0
2024-05-09T04:22:00.331Z,51.0
2024-05-09T04:23:00.358Z,51.1
2024-05-09T04:24:00.443Z,51.0
2024-05-09T04:25:00.385Z,50.9
2024-05-09T04:26:00.411Z,50.8
2024-05-09T04:27:00.355Z,50.8
2024-05-09T04:28:00.338Z,50.9
2024-05-09T04:29:00.365Z,50.9
2024-05-09T04:30:00.434Z,50.8
2024-05-09T04:31:00.380Z,51.0
2024-05-09T04:32:00.527Z,50.7
2024-05-09T04:33:00.478Z,50.7
2024-05-09T04:34:00.480Z,50.7
2024-05-09T04:35:00.710Z,50.8
2024-05-09T04:36:00.331Z,50.9
2024-05-09T04:37:00.385Z,50.9
2024-05-09T04:38:00.386Z,49.8
2024-05-09T04:39:00.326Z,46.5
2024-05-09T04:40:00.354Z,43.2
2024-05-09T04:41:00.361Z,40.5
2024-05-09T04:42:00.331Z,37.8
2024-05-09T04:43:00.460Z,35.5
2024-05-09T04:44:00.380Z,33.3
2024-05-09T04:45:00.325Z,32.8
2024-05-09T04:46:00.419Z,32.9
2024-05-09T04:47:00.350Z,33.2
2024-05-09T04:48:01.041Z,32.3
2024-05-09T04:49:00.521Z,31.9
2024-05-09T04:50:00.406Z,31.4
2024-05-09T04:51:00.355Z,30.5
2024-05-09T04:52:00.328Z,30.6
2024-05-09T04:53:00.355Z,30.8
2024-05-09T04:54:00.328Z,30.4
2024-05-09T04:55:00.378Z,30.1
2024-05-09T04:56:00.392Z,29.9
2024-05-09T04:57:00.380Z,30.0
2024-05-09T04:58:00.376Z,30.3
2024-05-09T04:59:00.344Z,30.0
2024-05-09T05:00:00.361Z,30.1
2024-05-09T05:02:00.620Z,29.7
2024-05-09T05:03:00.500Z,29.8
2024-05-09T05:04:00.471Z,29.3
2024-05-09T05:05:00.529Z,29.2
2024-05-09T05:06:00.449Z,29.7
2024-05-09T05:07:02.792Z,29.4
2024-05-09T05:08:00.586Z,29.9
2024-05-09T05:09:00.354Z,30.1
2024-05-09T05:10:00.330Z,29.4
2024-05-09T05:11:00.481Z,29.5
2024-05-09T05:12:00.413Z,29.4
2024-05-09T05:13:00.343Z,28.9
2024-05-09T05:14:00.429Z,29.0
2024-05-09T05:15:00.337Z,27.4
2024-05-09T05:16:00.328Z,27.8
2024-05-09T05:17:00.353Z,28.5
2024-05-09T05:18:00.536Z,29.0
2024-05-09T05:19:00.504Z,29.2
2024-05-09T05:21:00.419Z,29.0
2024-05-09T05:22:00.334Z,28.3
2024-05-09T05:23:00.535Z,28.0
2024-05-09T05:24:00.329Z,27.9
2024-05-09T05:25:00.338Z,28.2
2024-05-09T05:26:00.364Z,27.8
2024-05-09T05:27:00.376Z,28.4
2024-05-09T05:28:00.329Z,28.4
2024-05-09T05:29:00.406Z,28.3
2024-05-09T05:30:00.447Z,28.1
2024-05-09T05:31:00.331Z,28.1
2024-05-09T05:32:00.676Z,28.5
2024-05-09T05:33:00.607Z,28.4
2024-05-09T05:34:00.355Z,28.8
2024-05-09T05:35:00.373Z,28.3
2024-05-09T05:36:00.331Z,28.1
2024-05-09T05:37:00.328Z,27.7
2024-05-09T05:38:00.478Z,28.1
2024-05-09T05:39:00.337Z,27.8
2024-05-09T05:40:00.364Z,27.7
2024-05-09T05:41:00.444Z,27.7
2024-05-09T05:42:00.332Z,27.9
2024-05-09T05:43:00.332Z,28.1
2024-05-09T05:44:00.397Z,27.7
2024-05-09T05:45:00.360Z,28.1
2024-05-09T05:46:00.335Z,28.1
2024-05-09T05:47:00.377Z,27.4
2024-05-09T05:48:00.657Z,26.9
2024-05-09T05:49:00.466Z,27.0
2024-05-09T05:50:00.537Z,27.1
2024-05-09T05:51:03.650Z,27.3
2024-05-09T05:52:00.346Z,27.3
2024-05-09T05:53:00.489Z,27.1
2024-05-09T05:54:00.336Z,26.9
2024-05-09T05:55:00.369Z,26.7
2024-05-09T05:56:00.438Z,26.8
2024-05-09T05:57:00.331Z,26.8
2024-05-09T05:58:00.364Z,26.4
2024-05-09T05:59:00.346Z,25.9
2024-05-09T06:00:00.335Z,25.6
2024-05-09T06:01:00.457Z,25.6
2024-05-09T06:02:00.383Z,25.3
2024-05-09T06:03:00.444Z,24.6
2024-05-09T06:04:00.684Z,24.6
2024-05-09T06:05:00.569Z,24.9
2024-05-09T06:06:00.356Z,24.5
2024-05-09T06:07:00.336Z,24.6
2024-05-09T06:08:00.627Z,25.1
2024-05-09T06:09:00.333Z,25.1
2024-05-09T06:10:03.908Z,25.4
2024-05-09T06:11:00.383Z,25.2
2024-05-09T06:12:00.392Z,25.0
2024-05-09T06:13:00.374Z,24.9
2024-05-09T06:14:00.520Z,25.0
2024-05-09T06:15:00.333Z,24.5
2024-05-09T06:16:00.440Z,24.8
2024-05-09T06:17:00.373Z,24.9
2024-05-09T06:18:00.641Z,24.8
2024-05-09T06:19:00.411Z,24.9
2024-05-09T06:20:00.408Z,25.0
2024-05-09T06:21:00.394Z,25.3
2024-05-09T06:22:00.481Z,25.5
2024-05-09T06:23:00.404Z,25.7
2024-05-09T06:24:00.830Z,25.4
2024-05-09T06:25:00.332Z,25.6
2024-05-09T06:26:00.360Z,25.2
2024-05-09T06:27:00.332Z,24.8
2024-05-09T06:28:00.607Z,24.4
2024-05-09T06:29:00.372Z,24.4
2024-05-09T06:30:00.374Z,24.5
2024-05-09T06:31:00.321Z,24.7
2024-05-09T06:32:00.631Z,24.9
2024-05-09T06:33:00.457Z,25.2
2024-05-09T06:34:00.509Z,25.2
2024-05-09T06:35:00.362Z,25.2
2024-05-09T06:36:00.331Z,24.9
2024-05-09T06:37:00.327Z,25.3
2024-05-09T06:38:00.520Z,25.5
2024-05-09T06:39:00.327Z,25.4
2024-05-09T06:40:00.340Z,25.6
2024-05-09T06:41:00.402Z,25.2
2024-05-09T06:42:00.349Z,24.6
2024-05-09T06:43:00.333Z,24.5
2024-05-09T06:44:00.410Z,25.1
2024-05-09T06:45:00.374Z,25.2
2024-05-09T06:46:00.329Z,25.6
2024-05-09T06:47:00.533Z,26.1
2024-05-09T06:48:00.752Z,26.2
2024-05-09T06:49:00.544Z,26.2
2024-05-09T06:50:00.448Z,26.1
2024-05-09T06:51:00.355Z,26.1
2024-05-09T06:52:00.790Z,26.2
2024-05-09T06:53:00.514Z,26.1
2024-05-09T06:54:00.332Z,26.3
2024-05-09T06:55:00.381Z,26.2
2024-05-09T06:56:00.438Z,26.8
2024-05-09T06:57:00.344Z,26.9
2024-05-09T06:58:00.394Z,26.5
2024-05-09T06:59:00.436Z,26.4
2024-05-09T07:00:00.342Z,26.3
2024-05-09T07:01:00.506Z,25.6
2024-05-09T07:02:00.373Z,26.1
2024-05-09T07:03:03.534Z,26.2
2024-05-09T07:04:00.397Z,26.5
2024-05-09T07:05:00.585Z,26.7
2024-05-09T07:06:00.355Z,26.8
2024-05-09T07:07:00.396Z,26.7
2024-05-09T07:08:00.428Z,26.4
2024-05-09T07:09:00.354Z,26.2
2024-05-09T07:10:00.348Z,26.0
2024-05-09T07:11:00.484Z,26.1
2024-05-09T07:12:00.405Z,26.6
2024-05-09T07:13:00.380Z,26.5
2024-05-09T07:14:00.419Z,26.6
2024-05-09T07:15:00.337Z,26.6
2024-05-09T07:16:00.346Z,26.7
2024-05-09T07:17:00.405Z,26.9
2024-05-09T07:18:00.505Z,27.1
2024-05-09T07:19:00.647Z,27.3
2024-05-09T07:20:00.519Z,27.3
2024-05-09T07:21:00.414Z,27.4
2024-05-09T07:22:00.366Z,27.8
2024-05-09T07:23:00.379Z,27.5
2024-05-09T07:24:00.392Z,27.6
2024-05-09T07:25:00.433Z,27.8
2024-05-09T07:26:00.478Z,28.2
2024-05-09T07:27:00.345Z,27.9
2024-05-09T07:28:00.366Z,27.4
2024-05-09T07:29:00.387Z,27.2
2024-05-09T07:30:00.384Z,27.1
2024-05-09T07:31:00.380Z,27.1
2024-05-09T07:32:00.439Z,27.0
2024-05-09T07:33:00.747Z,27.3
2024-05-09T07:34:00.758Z,27.3
2024-05-09T07:35:00.382Z,27.6
2024-05-09T07:36:00.389Z,27.5
2024-05-09T07:37:00.414Z,28.1
2024-05-09T07:38:00.433Z,27.7
2024-05-09T07:39:00.355Z,27.5
2024-05-09T07:40:00.366Z,27.3
2024-05-09T07:41:00.409Z,27.2
2024-05-09T07:42:00.365Z,27.7
2024-05-09T07:43:00.331Z,27.7
2024-05-09T07:44:00.403Z,27.6
2024-05-09T07:45:17.742Z,27.1
2024-05-09T07:50:35.829Z,28.5
2024-05-09T07:51:47.497Z,28.7
2024-05-09T07:53:00.936Z,27.8
2024-05-09T07:53:24.976Z,28.1
2024-05-09T07:53:36.005Z,28.0
2024-05-09T07:54:01.517Z,27.6
2024-05-09T07:55:00.799Z,27.4
2024-05-09T07:56:00.521Z,27.1
2024-05-09T07:57:00.523Z,27.3
2024-05-09T07:58:05.459Z,27.6
2024-05-09T07:59:00.381Z,27.7
2024-05-09T08:00:00.405Z,27.7
2024-05-09T08:01:00.448Z,27.5
2024-05-09T08:02:00.599Z,27.3
2024-05-09T08:03:00.413Z,27.6
2024-05-09T08:04:00.521Z,27.5
2024-05-09T08:05:00.614Z,27.3
2024-05-09T08:06:00.387Z,27.4
2024-05-09T08:07:00.374Z,28.0
2024-05-09T08:08:00.367Z,26.9
2024-05-09T08:09:05.296Z,27.5
2024-05-09T08:10:00.438Z,27.6
2024-05-09T08:11:00.340Z,26.8
2024-05-09T08:12:00.361Z,26.5
2024-05-09T08:13:00.387Z,26.9
2024-05-09T08:14:00.350Z,27.1
2024-05-09T08:15:00.367Z,27.5
2024-05-09T08:16:00.733Z,27.7
2024-05-09T08:17:00.390Z,27.5
2024-05-09T08:18:00.813Z,26.9
2024-05-09T08:19:00.617Z,25.9
2024-05-09T08:20:02.019Z,25.6
2024-05-09T08:21:00.346Z,26.3
2024-05-09T08:22:00.391Z,25.2
2024-05-09T08:23:00.379Z,25.4
2024-05-09T08:24:00.478Z,25.4
2024-05-09T08:25:00.365Z,25.4
2024-05-09T08:26:00.349Z,25.0
2024-05-09T08:27:00.371Z,25.8
2024-05-09T08:28:00.423Z,25.5
2024-05-09T08:29:00.336Z,25.5
2024-05-09T08:30:00.454Z,25.5
2024-05-09T08:31:03.172Z,25.7
2024-05-09T08:32:00.459Z,25.8
2024-05-09T08:33:00.468Z,26.1
2024-05-09T08:34:00.524Z,26.1
2024-05-09T08:35:00.416Z,25.6
2024-05-09T08:36:00.359Z,25.3
2024-05-09T08:37:06.121Z,24.9
2024-05-09T08:38:00.440Z,24.1
2024-05-09T08:39:00.327Z,24.4
2024-05-09T08:40:00.504Z,24.9
2024-05-09T08:41:00.327Z,24.8
2024-05-09T08:42:04.392Z,25.2
2024-05-09T08:43:00.366Z,26.0
2024-05-09T08:44:00.362Z,24.8
2024-05-09T08:45:00.332Z,24.4
2024-05-09T08:46:00.392Z,24.5
2024-05-09T08:47:00.326Z,25.2
2024-05-09T08:48:00.561Z,25.7
2024-05-09T08:49:00.645Z,25.7
2024-05-09T08:50:00.505Z,25.5
2024-05-09T08:51:00.331Z,24.9
2024-05-09T08:52:00.391Z,25.0
2024-05-09T08:53:00.415Z,24.9
2024-05-09T08:54:00.344Z,24.9
2024-05-09T08:55:00.426Z,23.7
2024-05-09T08:56:00.354Z,22.7
2024-05-09T08:57:00.358Z,22.7
2024-05-09T08:58:00.353Z,22.6
2024-05-09T08:59:00.349Z,22.9
2024-05-09T09:00:00.471Z,22.5
2024-05-09T09:01:00.526Z,22.0
2024-05-09T09:02:00.478Z,22.5
2024-05-09T09:03:00.348Z,22.5
2024-05-09T09:04:06.573Z,22.7
2024-05-09T09:05:00.563Z,22.7
2024-05-09T09:06:00.361Z,23.1
2024-05-09T09:07:02.214Z,22.9
2024-05-09T09:08:00.385Z,22.4
2024-05-09T09:09:00.342Z,22.6
2024-05-09T09:10:00.495Z,22.5
2024-05-09T09:11:00.320Z,22.3
2024-05-09T09:12:00.366Z,21.8
2024-05-09T09:13:00.358Z,22.2
2024-05-09T09:14:00.393Z,22.7
2024-05-09T09:15:00.470Z,23.0
2024-05-09T09:16:00.575Z,23.0
2024-05-09T09:17:00.330Z,22.4
2024-05-09T09:18:00.830Z,21.6
2024-05-09T09:19:00.485Z,21.5
2024-05-09T09:20:00.700Z,21.2
2024-05-09T09:21:00.341Z,20.9
2024-05-09T09:22:00.406Z,20.7
2024-05-09T09:23:00.351Z,21.3
2024-05-09T09:24:00.325Z,20.9
2024-05-09T09:25:00.371Z,20.1
2024-05-09T09:26:00.545Z,20.3
2024-05-09T09:27:00.335Z,20.2
2024-05-09T09:28:00.496Z,20.1
2024-05-09T09:29:00.336Z,20.5
2024-05-09T09:30:00.368Z,20.9
2024-05-09T09:31:00.381Z,21.2
2024-05-09T09:32:00.390Z,21.4
2024-05-09T09:33:00.532Z,21.5
2024-05-09T09:34:00.505Z,21.0
2024-05-09T09:35:00.397Z,21.3
2024-05-09T09:36:00.326Z,21.5
2024-05-09T09:37:00.549Z,21.7
2024-05-09T09:38:00.377Z,21.4
2024-05-09T09:39:00.328Z,20.8
2024-05-09T09:40:00.374Z,20.9
2024-05-09T09:41:00.449Z,21.3
2024-05-09T09:42:00.349Z,21.4
2024-05-09T09:43:00.425Z,21.2
2024-05-09T09:44:00.334Z,21.5
2024-05-09T09:45:04.974Z,22.2
2024-05-09T09:46:00.472Z,22.6
2024-05-09T09:47:00.382Z,22.0
2024-05-09T09:48:00.503Z,22.1
2024-05-09T09:49:00.510Z,22.0
2024-05-09T09:50:00.333Z,22.2
2024-05-09T09:51:00.330Z,22.0
2024-05-09T09:52:00.402Z,22.0
2024-05-09T09:53:00.355Z,21.9
2024-05-09T09:54:00.327Z,21.8
2024-05-09T09:55:00.446Z,21.8
2024-05-09T09:56:00.331Z,21.0
2024-05-09T09:57:00.338Z,20.7
2024-05-09T09:58:00.430Z,20.2
2024-05-09T09:59:00.371Z,20.3
2024-05-09T10:00:00.351Z,20.2
2024-05-09T10:01:00.490Z,20.8
2024-05-09T10:02:00.548Z,20.9
2024-05-09T10:03:00.566Z,20.7
2024-05-09T10:04:00.494Z,20.4
2024-05-09T10:05:00.474Z,19.9
2024-05-09T10:06:00.448Z,20.2
2024-05-09T10:07:00.424Z,19.5
2024-05-09T10:08:00.336Z,19.9
2024-05-09T10:09:00.337Z,19.6
2024-05-09T10:10:00.514Z,20.0
2024-05-09T10:11:00.396Z,20.6
2024-05-09T10:12:00.892Z,19.9
2024-05-09T10:13:00.775Z,19.8
2024-05-09T10:14:00.334Z,19.7
2024-05-09T10:15:00.334Z,19.5
2024-05-09T10:16:00.390Z,18.9
2024-05-09T10:17:00.367Z,18.6
2024-05-09T10:18:00.385Z,17.8
2024-05-09T10:19:00.488Z,16.6
2024-05-09T10:20:00.399Z,15.5
2024-05-09T10:21:00.413Z,15.8
2024-05-09T10:22:00.346Z,15.5
2024-05-09T10:23:00.336Z,15.3
2024-05-09T10:24:00.334Z,15.6
2024-05-09T10:25:01.582Z,15.7
2024-05-09T10:26:00.368Z,15.7
2024-05-09T10:27:00.384Z,15.8
2024-05-09T10:28:00.380Z,16.5
2024-05-09T10:29:00.334Z,15.7
2024-05-09T10:30:00.337Z,15.7
2024-05-09T10:31:00.434Z,14.1
2024-05-09T10:32:00.380Z,14.0
2024-05-09T10:33:00.479Z,14.3
2024-05-09T10:34:00.703Z,14.5
2024-05-09T10:35:00.568Z,13.4
2024-05-09T10:36:00.332Z,12.2
2024-05-09T10:38:00.379Z,12.3
2024-05-09T10:39:00.388Z,11.7
2024-05-09T10:40:00.390Z,11.5
2024-05-09T10:41:00.334Z,12.4
2024-05-09T10:42:00.335Z,13.8
2024-05-09T10:43:03.486Z,13.8
2024-05-09T10:44:00.335Z,12.9
2024-05-09T10:45:00.387Z,13.1
2024-05-09T10:46:00.361Z,12.9
2024-05-09T10:47:00.389Z,12.4
2024-05-09T10:48:00.471Z,12.7
2024-05-09T10:49:04.244Z,12.0
2024-05-09T10:50:00.574Z,11.3
2024-05-09T10:51:00.324Z,11.6
2024-05-09T10:52:00.370Z,12.5
2024-05-09T10:53:00.337Z,12.5
2024-05-09T10:54:00.342Z,12.6
2024-05-09T10:55:01.659Z,13.0
2024-05-09T10:56:02.369Z,12.8
2024-05-09T10:57:00.353Z,13.1
2024-05-09T10:58:00.504Z,13.4
2024-05-09T10:59:00.327Z,13.6
2024-05-09T11:00:00.475Z,14.3
2024-05-09T11:02:00.500Z,14.4
2024-05-09T11:03:00.448Z,14.4
2024-05-09T11:04:00.584Z,14.2
2024-05-09T11:05:00.456Z,14.1
2024-05-09T11:06:00.334Z,14.2
2024-05-09T11:07:01.559Z,14.1
2024-05-09T11:08:00.372Z,14.3
2024-05-09T11:09:00.337Z,14.1
2024-05-09T11:10:00.371Z,14.7
2024-05-09T11:11:00.554Z,14.7
2024-05-09T11:12:00.475Z,14.8
2024-05-09T11:13:00.495Z,14.6
2024-05-09T11:14:00.393Z,14.6
2024-05-09T11:15:00.368Z,14.5
2024-05-09T11:16:00.580Z,14.8
2024-05-09T11:17:00.334Z,14.4
2024-05-09T11:18:00.501Z,14.8
2024-05-09T11:19:00.622Z,14.8
2024-05-09T11:20:00.647Z,15.1
2024-05-09T11:21:00.392Z,14.6
2024-05-09T11:22:00.405Z,14.4
2024-05-09T11:23:00.381Z,14.8
2024-05-09T11:24:00.341Z,15.4
2024-05-09T11:25:00.380Z,15.7
2024-05-09T11:26:00.363Z,15.3
2024-05-09T11:27:00.337Z,15.5
2024-05-09T11:28:00.359Z,15.1
2024-05-09T11:29:00.331Z,15.1
2024-05-09T11:30:00.350Z,15.1
2024-05-09T11:31:00.376Z,15.2
2024-05-09T11:32:00.445Z,15.7
2024-05-09T11:33:00.590Z,15.3
2024-05-09T11:34:00.474Z,15.1
2024-05-09T11:35:00.340Z,15.1
2024-05-09T11:36:00.400Z,15.1
2024-05-09T11:37:00.365Z,15.6
2024-05-09T11:38:00.391Z,15.3
2024-05-09T11:39:00.350Z,16.0
2024-05-09T11:40:00.446Z,16.0
2024-05-09T11:41:00.326Z,16.5
2024-05-09T11:42:00.334Z,16.1
2024-05-09T11:43:00.456Z,16.4
2024-05-09T11:44:00.448Z,16.3
2024-05-09T11:45:00.448Z,16.1
2024-05-09T11:46:00.413Z,16.0
2024-05-09T11:47:00.336Z,16.0
2024-05-09T11:48:00.477Z,15.8
2024-05-09T11:49:00.574Z,15.9
2024-05-09T11:50:00.575Z,15.6
2024-05-09T11:51:00.327Z,15.8
2024-05-09T11:52:00.561Z,15.9
2024-05-09T11:53:00.335Z,14.8
2024-05-09T11:54:00.335Z,15.1
2024-05-09T11:55:00.389Z,15.3
2024-05-09T11:56:00.434Z,15.6
2024-05-09T11:57:00.327Z,15.3
2024-05-09T11:58:00.435Z,15.1
2024-05-09T11:59:00.350Z,15.4
2024-05-09T12:00:00.393Z,15.2
2024-05-09T12:01:00.427Z,15.4
2024-05-09T12:02:00.547Z,15.8
2024-05-09T12:03:00.369Z,15.5
2024-05-09T12:04:00.760Z,15.5
2024-05-09T12:05:00.474Z,15.7
2024-05-09T12:06:00.639Z,15.6
2024-05-09T12:07:00.462Z,15.7
2024-05-09T12:08:00.385Z,16.2
2024-05-09T12:09:00.342Z,16.1
2024-05-09T12:10:00.437Z,16.1
2024-05-09T12:11:00.563Z,16.4
2024-05-09T12:12:00.347Z,16.4
2024-05-09T12:13:00.392Z,16.3
2024-05-09T12:14:00.361Z,16.1
2024-05-09T12:15:00.374Z,15.9
2024-05-09T12:16:00.406Z,15.9
2024-05-09T12:17:00.433Z,15.9
2024-05-09T12:18:03.478Z,16.1
2024-05-09T12:19:00.568Z,15.9
2024-05-09T12:20:00.411Z,15.9
2024-05-09T12:21:00.348Z,16.0
2024-05-09T12:22:00.369Z,16.7
2024-05-09T12:23:00.334Z,16.8
2024-05-09T12:24:00.377Z,17.1
2024-05-09T12:25:00.392Z,17.1
2024-05-09T12:26:00.429Z,17.2
2024-05-09T12:27:00.341Z,17.3
2024-05-09T12:28:00.783Z,17.2
2024-05-09T12:29:00.396Z,17.3
2024-05-09T12:30:00.333Z,17.3
2024-05-09T12:31:00.356Z,17.3
2024-05-09T12:32:00.358Z,17.6
2024-05-09T12:33:00.484Z,17.5
2024-05-09T12:34:00.494Z,17.4
2024-05-09T12:35:00.346Z,17.3
2024-05-09T12:36:00.353Z,17.6
2024-05-09T12:37:00.490Z,17.9
2024-05-09T12:38:00.424Z,17.7
2024-05-09T12:39:00.329Z,17.8
2024-05-09T12:40:06.708Z,17.7
2024-05-09T12:41:00.489Z,17.7
2024-05-09T12:42:00.334Z,17.9
2024-05-09T12:43:00.431Z,17.9
2024-05-09T12:44:00.333Z,17.8
2024-05-09T12:45:00.360Z,18.2
2024-05-09T12:46:00.537Z,18.4
2024-05-09T12:47:00.334Z,18.5
2024-05-09T12:48:00.505Z,18.2
2024-05-09T12:50:00.410Z,18.0
2024-05-09T12:51:00.498Z,17.6
2024-05-09T12:52:00.561Z,17.8
2024-05-09T12:53:00.381Z,17.8
2024-05-09T12:54:00.375Z,18.0
2024-05-09T12:55:00.541Z,17.7
2024-05-09T12:56:02.492Z,17.6
2024-05-09T12:57:00.330Z,17.9
2024-05-09T12:58:08.946Z,17.6
2024-05-09T12:59:00.380Z,17.8
2024-05-09T13:00:00.394Z,18.0
2024-05-09T13:01:00.388Z,17.9
2024-05-09T13:02:01.217Z,17.9
2024-05-09T13:03:00.968Z,17.8
2024-05-09T13:05:00.528Z,17.4
2024-05-09T13:06:00.327Z,17.5
2024-05-09T13:07:00.394Z,17.5
2024-05-09T13:08:00.345Z,17.5
2024-05-09T13:09:00.334Z,17.5
2024-05-09T13:10:00.426Z,17.8
2024-05-09T13:11:00.349Z,17.9
2024-05-09T13:12:00.372Z,17.8
2024-05-09T13:13:01.373Z,18.1
2024-05-09T13:14:00.387Z,18.3
2024-05-09T13:15:00.362Z,18.5
2024-05-09T13:16:00.397Z,18.7
2024-05-09T13:17:00.509Z,18.7
2024-05-09T13:18:02.926Z,19.0
2024-05-09T13:19:00.358Z,19.0
2024-05-09T13:20:00.342Z,19.0
2024-05-09T13:21:00.332Z,19.2
2024-05-09T13:22:00.465Z,19.2
2024-05-09T13:23:00.334Z,19.5
2024-05-09T13:24:00.657Z,19.4
2024-05-09T13:25:00.401Z,19.1
2024-05-09T13:26:00.331Z,19.1
2024-05-09T13:27:00.332Z,19.0